sensor_id;sensor_type;location;lat;lon;timestamp;P1;durP1;ratioP1;P2;durP2;ratioP2
75785;SDS011;64402;44.708;37.644;2023-04-24T00:00:36;5.15;;;1.60;;
75785;SDS011;64402;44.708;37.644;2023-04-24T00:03:03;4.75;;;1.63;;
75785;SDS011;64402;44.708;37.644;2023-04-24T00:05:29;5.80;;;1.75;;
75785;SDS011;64402;44.708;37.644;2023-04-24T00:07:55;9.45;;;1.98;;
75785;SDS011;64402;44.708;37.644;2023-04-24T00:10:22;4.40;;;1.38;;
75785;SDS011;64402;44.708;37.644;2023-04-24T00:12:48;4.03;;;1.58;;
75785;SDS011;64402;44.708;37.644;2023-04-24T00:15:14;5.95;;;1.75;;
75785;SDS011;64402;44.708;37.644;2023-04-24T00:17:40;8.23;;;1.70;;
75785;SDS011;64402;44.708;37.644;2023-04-24T00:20:06;4.85;;;1.90;;
75785;SDS011;64402;44.708;37.644;2023-04-24T00:22:33;4.22;;;1.70;;
75785;SDS011;64402;44.708;37.644;2023-04-24T00:24:59;4.85;;;1.75;;
75785;SDS011;64402;44.708;37.644;2023-04-24T00:27:25;4.00;;;1.50;;
75785;SDS011;64402;44.708;37.644;2023-04-24T00:29:51;7.88;;;2.08;;
75785;SDS011;64402;44.708;37.644;2023-04-24T00:32:18;8.95;;;1.60;;
75785;SDS011;64402;44.708;37.644;2023-04-24T00:34:44;5.93;;;1.63;;
75785;SDS011;64402;44.708;37.644;2023-04-24T00:37:10;4.82;;;1.50;;
75785;SDS011;64402;44.708;37.644;2023-04-24T00:39:37;7.18;;;1.90;;
75785;SDS011;64402;44.708;37.644;2023-04-24T00:42:03;5.25;;;1.70;;
75785;SDS011;64402;44.708;37.644;2023-04-24T00:44:32;7.32;;;1.58;;
75785;SDS011;64402;44.708;37.644;2023-04-24T00:47:00;8.13;;;1.90;;
75785;SDS011;64402;44.708;37.644;2023-04-24T00:49:27;3.38;;;1.25;;
75785;SDS011;64402;44.708;37.644;2023-04-24T00:51:53;5.65;;;1.65;;
75785;SDS011;64402;44.708;37.644;2023-04-24T00:54:19;6.35;;;1.60;;
75785;SDS011;64402;44.708;37.644;2023-04-24T00:56:46;4.68;;;1.60;;
75785;SDS011;64402;44.708;37.644;2023-04-24T00:59:13;4.25;;;1.23;;
75785;SDS011;64402;44.708;37.644;2023-04-24T01:01:40;5.20;;;1.55;;
75785;SDS011;64402;44.708;37.644;2023-04-24T01:04:07;4.57;;;1.40;;
75785;SDS011;64402;44.708;37.644;2023-04-24T01:06:35;3.28;;;1.23;;
75785;SDS011;64402;44.708;37.644;2023-04-24T01:09:05;6.95;;;1.67;;
75785;SDS011;64402;44.708;37.644;2023-04-24T01:11:34;4.95;;;1.50;;
75785;SDS011;64402;44.708;37.644;2023-04-24T01:14:00;5.88;;;1.42;;
75785;SDS011;64402;44.708;37.644;2023-04-24T01:16:27;6.95;;;1.63;;
75785;SDS011;64402;44.708;37.644;2023-04-24T01:18:53;6.43;;;1.75;;
75785;SDS011;64402;44.708;37.644;2023-04-24T01:21:19;3.90;;;1.30;;
75785;SDS011;64402;44.708;37.644;2023-04-24T01:23:47;5.63;;;1.27;;
75785;SDS011;64402;44.708;37.644;2023-04-24T01:26:14;3.30;;;1.17;;
75785;SDS011;64402;44.708;37.644;2023-04-24T01:28:41;3.97;;;1.40;;
75785;SDS011;64402;44.708;37.644;2023-04-24T01:31:08;6.05;;;1.50;;
75785;SDS011;64402;44.708;37.644;2023-04-24T01:33:34;4.45;;;1.40;;
75785;SDS011;64402;44.708;37.644;2023-04-24T01:36:00;3.60;;;1.25;;
75785;SDS011;64402;44.708;37.644;2023-04-24T01:38:27;4.07;;;1.00;;
75785;SDS011;64402;44.708;37.644;2023-04-24T01:40:53;8.10;;;1.60;;
75785;SDS011;64402;44.708;37.644;2023-04-24T01:43:19;3.30;;;1.15;;
75785;SDS011;64402;44.708;37.644;2023-04-24T01:45:46;3.25;;;1.40;;
75785;SDS011;64402;44.708;37.644;2023-04-24T01:48:12;6.00;;;1.48;;
75785;SDS011;64402;44.708;37.644;2023-04-24T01:50:39;7.97;;;1.50;;
75785;SDS011;64402;44.708;37.644;2023-04-24T01:53:05;3.03;;;1.10;;
75785;SDS011;64402;44.708;37.644;2023-04-24T01:55:31;4.68;;;1.30;;
75785;SDS011;64402;44.708;37.644;2023-04-24T01:57:58;4.00;;;1.10;;
75785;SDS011;64402;44.708;37.644;2023-04-24T02:00:26;3.67;;;1.08;;
75785;SDS011;64402;44.708;37.644;2023-04-24T02:02:52;7.32;;;1.40;;
75785;SDS011;64402;44.708;37.644;2023-04-24T02:05:18;4.40;;;1.20;;
75785;SDS011;64402;44.708;37.644;2023-04-24T02:07:45;4.10;;;1.13;;
75785;SDS011;64402;44.708;37.644;2023-04-24T02:10:11;5.78;;;1.50;;
75785;SDS011;64402;44.708;37.644;2023-04-24T02:12:37;3.30;;;1.40;;
75785;SDS011;64402;44.708;37.644;2023-04-24T02:15:04;3.28;;;1.27;;
75785;SDS011;64402;44.708;37.644;2023-04-24T02:17:30;6.38;;;1.50;;
75785;SDS011;64402;44.708;37.644;2023-04-24T02:19:56;4.57;;;1.13;;
75785;SDS011;64402;44.708;37.644;2023-04-24T02:22:23;5.43;;;1.60;;
75785;SDS011;64402;44.708;37.644;2023-04-24T02:24:49;4.18;;;1.38;;
75785;SDS011;64402;44.708;37.644;2023-04-24T02:27:15;9.80;;;2.47;;
75785;SDS011;64402;44.708;37.644;2023-04-24T02:29:41;10.52;;;4.38;;
75785;SDS011;64402;44.708;37.644;2023-04-24T02:32:07;5.43;;;1.70;;
75785;SDS011;64402;44.708;37.644;2023-04-24T02:34:37;3.70;;;1.60;;
75785;SDS011;64402;44.708;37.644;2023-04-24T02:37:04;6.38;;;1.35;;
75785;SDS011;64402;44.708;37.644;2023-04-24T02:39:30;4.38;;;1.10;;
75785;SDS011;64402;44.708;37.644;2023-04-24T02:41:56;5.57;;;1.80;;
75785;SDS011;64402;44.708;37.644;2023-04-24T02:44:22;4.50;;;1.30;;
75785;SDS011;64402;44.708;37.644;2023-04-24T02:46:49;5.15;;;1.50;;
75785;SDS011;64402;44.708;37.644;2023-04-24T02:49:15;4.20;;;1.30;;
75785;SDS011;64402;44.708;37.644;2023-04-24T02:51:41;4.18;;;1.27;;
75785;SDS011;64402;44.708;37.644;2023-04-24T02:54:08;4.55;;;1.60;;
75785;SDS011;64402;44.708;37.644;2023-04-24T02:56:37;3.90;;;1.55;;
75785;SDS011;64402;44.708;37.644;2023-04-24T02:59:04;3.65;;;1.20;;
75785;SDS011;64402;44.708;37.644;2023-04-24T03:01:30;3.78;;;1.13;;
75785;SDS011;64402;44.708;37.644;2023-04-24T03:03:57;6.03;;;1.58;;
75785;SDS011;64402;44.708;37.644;2023-04-24T03:06:23;3.72;;;1.27;;
75785;SDS011;64402;44.708;37.644;2023-04-24T03:08:50;5.03;;;1.15;;
75785;SDS011;64402;44.708;37.644;2023-04-24T03:11:16;7.43;;;1.60;;
75785;SDS011;64402;44.708;37.644;2023-04-24T03:13:43;5.18;;;1.50;;
75785;SDS011;64402;44.708;37.644;2023-04-24T03:16:09;6.10;;;1.48;;
75785;SDS011;64402;44.708;37.644;2023-04-24T03:18:35;4.55;;;1.67;;
75785;SDS011;64402;44.708;37.644;2023-04-24T03:21:02;4.63;;;1.60;;
75785;SDS011;64402;44.708;37.644;2023-04-24T03:23:29;8.70;;;1.58;;
75785;SDS011;64402;44.708;37.644;2023-04-24T03:25:55;5.25;;;1.63;;
75785;SDS011;64402;44.708;37.644;2023-04-24T03:28:21;5.05;;;1.60;;
75785;SDS011;64402;44.708;37.644;2023-04-24T03:30:48;5.22;;;1.52;;
75785;SDS011;64402;44.708;37.644;2023-04-24T03:33:14;4.85;;;1.20;;
75785;SDS011;64402;44.708;37.644;2023-04-24T03:35:41;4.82;;;1.50;;
75785;SDS011;64402;44.708;37.644;2023-04-24T03:38:07;4.25;;;1.58;;
75785;SDS011;64402;44.708;37.644;2023-04-24T03:40:34;4.95;;;1.67;;
75785;SDS011;64402;44.708;37.644;2023-04-24T03:43:01;7.82;;;1.50;;
75785;SDS011;64402;44.708;37.644;2023-04-24T03:45:28;8.90;;;1.50;;
75785;SDS011;64402;44.708;37.644;2023-04-24T03:47:54;7.53;;;1.50;;
75785;SDS011;64402;44.708;37.644;2023-04-24T03:50:20;3.80;;;1.38;;
75785;SDS011;64402;44.708;37.644;2023-04-24T03:52:47;4.72;;;1.65;;
75785;SDS011;64402;44.708;37.644;2023-04-24T03:55:13;5.28;;;1.42;;
75785;SDS011;64402;44.708;37.644;2023-04-24T03:57:40;5.47;;;2.00;;
75785;SDS011;64402;44.708;37.644;2023-04-24T04:00:07;9.50;;;1.90;;
75785;SDS011;64402;44.708;37.644;2023-04-24T04:02:34;5.35;;;1.60;;
75785;SDS011;64402;44.708;37.644;2023-04-24T04:05:01;5.13;;;1.60;;
75785;SDS011;64402;44.708;37.644;2023-04-24T04:07:27;5.82;;;1.65;;
75785;SDS011;64402;44.708;37.644;2023-04-24T04:09:55;5.03;;;1.70;;
75785;SDS011;64402;44.708;37.644;2023-04-24T04:12:21;8.23;;;1.77;;
75785;SDS011;64402;44.708;37.644;2023-04-24T04:14:48;8.32;;;1.92;;
75785;SDS011;64402;44.708;37.644;2023-04-24T04:17:14;5.00;;;1.50;;
75785;SDS011;64402;44.708;37.644;2023-04-24T04:19:41;7.75;;;2.10;;
75785;SDS011;64402;44.708;37.644;2023-04-24T04:22:07;6.93;;;2.47;;
75785;SDS011;64402;44.708;37.644;2023-04-24T04:24:34;7.05;;;2.45;;
75785;SDS011;64402;44.708;37.644;2023-04-24T04:27:04;10.27;;;2.90;;
75785;SDS011;64402;44.708;37.644;2023-04-24T04:29:31;7.97;;;2.40;;
75785;SDS011;64402;44.708;37.644;2023-04-24T04:31:57;12.00;;;2.60;;
75785;SDS011;64402;44.708;37.644;2023-04-24T04:34:24;13.10;;;2.67;;
75785;SDS011;64402;44.708;37.644;2023-04-24T04:36:50;9.27;;;2.40;;
75785;SDS011;64402;44.708;37.644;2023-04-24T04:39:17;6.25;;;2.20;;
75785;SDS011;64402;44.708;37.644;2023-04-24T04:41:44;5.80;;;2.00;;
75785;SDS011;64402;44.708;37.644;2023-04-24T04:44:14;5.55;;;1.60;;
75785;SDS011;64402;44.708;37.644;2023-04-24T04:46:40;4.93;;;1.42;;
75785;SDS011;64402;44.708;37.644;2023-04-24T04:49:07;5.75;;;1.70;;
75785;SDS011;64402;44.708;37.644;2023-04-24T04:51:34;6.55;;;1.50;;
75785;SDS011;64402;44.708;37.644;2023-04-24T04:54:01;8.15;;;1.73;;
75785;SDS011;64402;44.708;37.644;2023-04-24T04:56:27;5.32;;;1.73;;
75785;SDS011;64402;44.708;37.644;2023-04-24T04:58:54;13.85;;;2.40;;
75785;SDS011;64402;44.708;37.644;2023-04-24T05:01:20;7.82;;;2.67;;
75785;SDS011;64402;44.708;37.644;2023-04-24T05:03:49;10.38;;;3.60;;
75785;SDS011;64402;44.708;37.644;2023-04-24T05:06:15;9.23;;;3.38;;
75785;SDS011;64402;44.708;37.644;2023-04-24T05:08:41;11.25;;;2.92;;
75785;SDS011;64402;44.708;37.644;2023-04-24T05:11:08;6.55;;;2.40;;
75785;SDS011;64402;44.708;37.644;2023-04-24T05:13:34;11.80;;;2.42;;
75785;SDS011;64402;44.708;37.644;2023-04-24T05:16:01;8.95;;;2.47;;
75785;SDS011;64402;44.708;37.644;2023-04-24T05:18:27;8.85;;;1.92;;
75785;SDS011;64402;44.708;37.644;2023-04-24T05:20:53;9.70;;;2.00;;
75785;SDS011;64402;44.708;37.644;2023-04-24T05:23:20;5.80;;;1.70;;
75785;SDS011;64402;44.708;37.644;2023-04-24T05:25:49;8.45;;;1.63;;
75785;SDS011;64402;44.708;37.644;2023-04-24T05:28:15;6.53;;;2.08;;
75785;SDS011;64402;44.708;37.644;2023-04-24T05:30:42;18.80;;;2.33;;
75785;SDS011;64402;44.708;37.644;2023-04-24T05:33:08;6.63;;;2.08;;
75785;SDS011;64402;44.708;37.644;2023-04-24T05:35:35;6.70;;;2.03;;
75785;SDS011;64402;44.708;37.644;2023-04-24T05:38:01;6.25;;;2.17;;
75785;SDS011;64402;44.708;37.644;2023-04-24T05:40:28;6.70;;;2.22;;
75785;SDS011;64402;44.708;37.644;2023-04-24T05:42:55;5.90;;;2.00;;
75785;SDS011;64402;44.708;37.644;2023-04-24T05:45:21;7.32;;;2.13;;
75785;SDS011;64402;44.708;37.644;2023-04-24T05:47:47;7.82;;;2.50;;
75785;SDS011;64402;44.708;37.644;2023-04-24T05:50:13;5.88;;;2.13;;
75785;SDS011;64402;44.708;37.644;2023-04-24T05:52:40;5.03;;;1.88;;
75785;SDS011;64402;44.708;37.644;2023-04-24T05:55:06;6.07;;;1.98;;
75785;SDS011;64402;44.708;37.644;2023-04-24T05:57:33;6.63;;;2.05;;
75785;SDS011;64402;44.708;37.644;2023-04-24T05:59:59;6.28;;;2.10;;
75785;SDS011;64402;44.708;37.644;2023-04-24T06:02:25;6.45;;;2.20;;
75785;SDS011;64402;44.708;37.644;2023-04-24T06:04:52;7.63;;;1.92;;
75785;SDS011;64402;44.708;37.644;2023-04-24T06:07:19;7.40;;;2.10;;
75785;SDS011;64402;44.708;37.644;2023-04-24T06:09:45;7.50;;;2.08;;
75785;SDS011;64402;44.708;37.644;2023-04-24T06:12:12;7.85;;;2.20;;
75785;SDS011;64402;44.708;37.644;2023-04-24T06:14:38;11.52;;;2.13;;
75785;SDS011;64402;44.708;37.644;2023-04-24T06:17:05;5.95;;;2.00;;
75785;SDS011;64402;44.708;37.644;2023-04-24T06:19:31;7.05;;;2.10;;
75785;SDS011;64402;44.708;37.644;2023-04-24T06:21:57;5.93;;;1.88;;
75785;SDS011;64402;44.708;37.644;2023-04-24T06:24:26;5.05;;;1.65;;
75785;SDS011;64402;44.708;37.644;2023-04-24T06:26:53;8.70;;;2.20;;
75785;SDS011;64402;44.708;37.644;2023-04-24T06:29:19;5.35;;;1.92;;
75785;SDS011;64402;44.708;37.644;2023-04-24T06:31:45;7.35;;;2.10;;
75785;SDS011;64402;44.708;37.644;2023-04-24T06:34:12;9.00;;;2.10;;
75785;SDS011;64402;44.708;37.644;2023-04-24T06:36:38;10.77;;;2.63;;
75785;SDS011;64402;44.708;37.644;2023-04-24T06:39:04;7.40;;;2.40;;
75785;SDS011;64402;44.708;37.644;2023-04-24T06:41:30;7.63;;;2.50;;
75785;SDS011;64402;44.708;37.644;2023-04-24T06:43:57;13.15;;;2.75;;
75785;SDS011;64402;44.708;37.644;2023-04-24T06:46:23;10.38;;;2.75;;
75785;SDS011;64402;44.708;37.644;2023-04-24T06:48:52;8.30;;;2.70;;
75785;SDS011;64402;44.708;37.644;2023-04-24T06:51:24;7.90;;;2.80;;
75785;SDS011;64402;44.708;37.644;2023-04-24T06:53:53;8.50;;;3.00;;
75785;SDS011;64402;44.708;37.644;2023-04-24T06:56:20;8.88;;;3.90;;
75785;SDS011;64402;44.708;37.644;2023-04-24T06:58:46;8.38;;;3.50;;
75785;SDS011;64402;44.708;37.644;2023-04-24T07:01:13;7.72;;;3.08;;
75785;SDS011;64402;44.708;37.644;2023-04-24T07:03:39;6.97;;;3.08;;
75785;SDS011;64402;44.708;37.644;2023-04-24T07:06:06;7.68;;;3.25;;
75785;SDS011;64402;44.708;37.644;2023-04-24T07:08:32;6.22;;;3.10;;
75785;SDS011;64402;44.708;37.644;2023-04-24T07:10:59;9.07;;;3.53;;
75785;SDS011;64402;44.708;37.644;2023-04-24T07:13:26;9.82;;;3.50;;
75785;SDS011;64402;44.708;37.644;2023-04-24T07:15:53;8.48;;;3.45;;
75785;SDS011;64402;44.708;37.644;2023-04-24T07:18:21;10.38;;;3.40;;
75785;SDS011;64402;44.708;37.644;2023-04-24T07:20:48;7.65;;;3.25;;
75785;SDS011;64402;44.708;37.644;2023-04-24T07:23:18;9.00;;;3.70;;
75785;SDS011;64402;44.708;37.644;2023-04-24T07:25:45;12.55;;;3.72;;
75785;SDS011;64402;44.708;37.644;2023-04-24T07:28:12;8.15;;;3.97;;
75785;SDS011;64402;44.708;37.644;2023-04-24T07:30:38;8.25;;;3.97;;
75785;SDS011;64402;44.708;37.644;2023-04-24T07:33:05;11.05;;;4.45;;
75785;SDS011;64402;44.708;37.644;2023-04-24T07:35:33;11.13;;;4.25;;
75785;SDS011;64402;44.708;37.644;2023-04-24T07:38:00;8.40;;;4.50;;
75785;SDS011;64402;44.708;37.644;2023-04-24T07:40:27;8.90;;;3.85;;
75785;SDS011;64402;44.708;37.644;2023-04-24T07:42:53;10.75;;;4.40;;
75785;SDS011;64402;44.708;37.644;2023-04-24T07:45:19;8.43;;;3.80;;
75785;SDS011;64402;44.708;37.644;2023-04-24T07:47:46;8.10;;;4.10;;
75785;SDS011;64402;44.708;37.644;2023-04-24T07:50:12;9.70;;;3.83;;
75785;SDS011;64402;44.708;37.644;2023-04-24T07:52:38;12.88;;;3.67;;
75785;SDS011;64402;44.708;37.644;2023-04-24T07:55:05;7.57;;;3.60;;
75785;SDS011;64402;44.708;37.644;2023-04-24T07:57:31;8.38;;;3.78;;
75785;SDS011;64402;44.708;37.644;2023-04-24T07:59:59;8.25;;;3.95;;
75785;SDS011;64402;44.708;37.644;2023-04-24T08:02:26;7.22;;;3.40;;
75785;SDS011;64402;44.708;37.644;2023-04-24T08:04:52;7.70;;;3.60;;
75785;SDS011;64402;44.708;37.644;2023-04-24T08:07:22;9.98;;;3.33;;
75785;SDS011;64402;44.708;37.644;2023-04-24T08:09:49;8.20;;;3.35;;
75785;SDS011;64402;44.708;37.644;2023-04-24T08:12:15;7.22;;;3.60;;
75785;SDS011;64402;44.708;37.644;2023-04-24T08:14:42;7.80;;;3.55;;
75785;SDS011;64402;44.708;37.644;2023-04-24T08:17:08;9.70;;;3.38;;
75785;SDS011;64402;44.708;37.644;2023-04-24T08:19:34;8.52;;;4.05;;
75785;SDS011;64402;44.708;37.644;2023-04-24T08:22:00;7.80;;;3.45;;
75785;SDS011;64402;44.708;37.644;2023-04-24T08:24:27;7.93;;;3.35;;
75785;SDS011;64402;44.708;37.644;2023-04-24T08:26:53;9.13;;;3.38;;
75785;SDS011;64402;44.708;37.644;2023-04-24T08:29:21;6.85;;;3.72;;
75785;SDS011;64402;44.708;37.644;2023-04-24T08:31:47;8.13;;;3.63;;
75785;SDS011;64402;44.708;37.644;2023-04-24T08:34:14;7.05;;;3.78;;
75785;SDS011;64402;44.708;37.644;2023-04-24T08:36:40;7.22;;;3.50;;
75785;SDS011;64402;44.708;37.644;2023-04-24T08:39:06;9.65;;;3.70;;
75785;SDS011;64402;44.708;37.644;2023-04-24T08:41:34;7.53;;;3.50;;
75785;SDS011;64402;44.708;37.644;2023-04-24T08:46:27;9.27;;;3.78;;
75785;SDS011;64402;44.708;37.644;2023-04-24T08:48:56;7.28;;;3.22;;
75785;SDS011;64402;44.708;37.644;2023-04-24T08:51:22;12.00;;;3.33;;
75785;SDS011;64402;44.708;37.644;2023-04-24T08:53:52;7.57;;;3.35;;
75785;SDS011;64402;44.708;37.644;2023-04-24T08:56:20;7.30;;;3.45;;
75785;SDS011;64402;44.708;37.644;2023-04-24T08:58:51;8.05;;;4.10;;
75785;SDS011;64402;44.708;37.644;2023-04-24T09:01:19;8.23;;;3.17;;
75785;SDS011;64402;44.708;37.644;2023-04-24T09:03:47;8.43;;;3.28;;
75785;SDS011;64402;44.708;37.644;2023-04-24T09:06:16;8.80;;;4.10;;
75785;SDS011;64402;44.708;37.644;2023-04-24T09:08:43;9.23;;;3.25;;
75785;SDS011;64402;44.708;37.644;2023-04-24T09:11:11;7.50;;;3.28;;
75785;SDS011;64402;44.708;37.644;2023-04-24T09:13:38;7.55;;;3.28;;
75785;SDS011;64402;44.708;37.644;2023-04-24T09:16:04;8.52;;;3.13;;
75785;SDS011;64402;44.708;37.644;2023-04-24T09:18:31;8.35;;;3.50;;
75785;SDS011;64402;44.708;37.644;2023-04-24T09:21:04;7.53;;;3.22;;
75785;SDS011;64402;44.708;37.644;2023-04-24T09:23:33;6.82;;;3.30;;
75785;SDS011;64402;44.708;37.644;2023-04-24T09:26:00;8.73;;;3.97;;
75785;SDS011;64402;44.708;37.644;2023-04-24T09:28:38;11.07;;;3.83;;
75785;SDS011;64402;44.708;37.644;2023-04-24T09:33:33;8.98;;;3.30;;
75785;SDS011;64402;44.708;37.644;2023-04-24T09:36:00;12.07;;;4.20;;
75785;SDS011;64402;44.708;37.644;2023-04-24T09:38:33;6.50;;;2.50;;
75785;SDS011;64402;44.708;37.644;2023-04-24T09:41:05;6.63;;;2.53;;
75785;SDS011;64402;44.708;37.644;2023-04-24T09:43:33;6.63;;;2.42;;
75785;SDS011;64402;44.708;37.644;2023-04-24T09:48:35;9.13;;;2.50;;
75785;SDS011;64402;44.708;37.644;2023-04-24T09:51:04;9.65;;;3.03;;
75785;SDS011;64402;44.708;37.644;2023-04-24T09:53:37;7.75;;;2.97;;
75785;SDS011;64402;44.708;37.644;2023-04-24T09:56:08;9.55;;;2.63;;
75785;SDS011;64402;44.708;37.644;2023-04-24T09:58:36;8.23;;;2.63;;
75785;SDS011;64402;44.708;37.644;2023-04-24T10:01:02;6.95;;;2.42;;
75785;SDS011;64402;44.708;37.644;2023-04-24T10:03:29;14.75;;;2.80;;
75785;SDS011;64402;44.708;37.644;2023-04-24T10:05:59;8.15;;;2.70;;
75785;SDS011;64402;44.708;37.644;2023-04-24T10:08:35;8.90;;;2.38;;
75785;SDS011;64402;44.708;37.644;2023-04-24T10:11:02;6.75;;;2.47;;
75785;SDS011;64402;44.708;37.644;2023-04-24T10:13:29;7.10;;;2.13;;
75785;SDS011;64402;44.708;37.644;2023-04-24T10:15:56;6.25;;;1.90;;
75785;SDS011;64402;44.708;37.644;2023-04-24T10:18:26;8.75;;;2.20;;
75785;SDS011;64402;44.708;37.644;2023-04-24T10:20:53;7.47;;;2.17;;
75785;SDS011;64402;44.708;37.644;2023-04-24T10:23:20;5.15;;;1.70;;
75785;SDS011;64402;44.708;37.644;2023-04-24T10:25:47;4.70;;;1.92;;
75785;SDS011;64402;44.708;37.644;2023-04-24T10:28:15;5.63;;;1.70;;
75785;SDS011;64402;44.708;37.644;2023-04-24T10:30:43;5.85;;;2.00;;
75785;SDS011;64402;44.708;37.644;2023-04-24T10:35:42;6.35;;;1.83;;
75785;SDS011;64402;44.708;37.644;2023-04-24T10:38:15;7.03;;;2.17;;
75785;SDS011;64402;44.708;37.644;2023-04-24T10:40:49;4.40;;;1.70;;
75785;SDS011;64402;44.708;37.644;2023-04-24T10:43:16;6.72;;;1.83;;
75785;SDS011;64402;44.708;37.644;2023-04-24T10:46:03;5.47;;;1.85;;
75785;SDS011;64402;44.708;37.644;2023-04-24T10:48:31;4.40;;;1.50;;
75785;SDS011;64402;44.708;37.644;2023-04-24T10:50:58;8.32;;;2.25;;
75785;SDS011;64402;44.708;37.644;2023-04-24T10:53:27;7.00;;;2.45;;
75785;SDS011;64402;44.708;37.644;2023-04-24T10:58:41;9.15;;;2.30;;
75785;SDS011;64402;44.708;37.644;2023-04-24T11:01:31;5.63;;;2.03;;
75785;SDS011;64402;44.708;37.644;2023-04-24T11:03:59;7.10;;;2.40;;
75785;SDS011;64402;44.708;37.644;2023-04-24T11:06:31;10.70;;;2.88;;
75785;SDS011;64402;44.708;37.644;2023-04-24T11:09:10;7.55;;;2.33;;
75785;SDS011;64402;44.708;37.644;2023-04-24T11:11:44;6.82;;;2.90;;
75785;SDS011;64402;44.708;37.644;2023-04-24T11:14:14;6.15;;;2.20;;
75785;SDS011;64402;44.708;37.644;2023-04-24T11:16:45;6.68;;;2.65;;
75785;SDS011;64402;44.708;37.644;2023-04-24T11:19:25;7.95;;;2.40;;
75785;SDS011;64402;44.708;37.644;2023-04-24T11:24:39;7.05;;;2.53;;
75785;SDS011;64402;44.708;37.644;2023-04-24T11:27:07;5.88;;;2.10;;
75785;SDS011;64402;44.708;37.644;2023-04-24T11:29:47;4.65;;;1.77;;
75785;SDS011;64402;44.708;37.644;2023-04-24T11:32:19;7.07;;;2.20;;
75785;SDS011;64402;44.708;37.644;2023-04-24T11:34:50;6.03;;;2.03;;
75785;SDS011;64402;44.708;37.644;2023-04-24T11:37:28;8.70;;;2.03;;
75785;SDS011;64402;44.708;37.644;2023-04-24T11:40:00;8.60;;;2.35;;
75785;SDS011;64402;44.708;37.644;2023-04-24T11:42:27;5.95;;;2.08;;
75785;SDS011;64402;44.708;37.644;2023-04-24T11:44:54;6.57;;;2.00;;
75785;SDS011;64402;44.708;37.644;2023-04-24T11:47:30;7.03;;;2.45;;
75785;SDS011;64402;44.708;37.644;2023-04-24T11:49:59;6.15;;;2.55;;
75785;SDS011;64402;44.708;37.644;2023-04-24T11:52:26;8.50;;;2.92;;
75785;SDS011;64402;44.708;37.644;2023-04-24T11:54:53;6.80;;;2.72;;
75785;SDS011;64402;44.708;37.644;2023-04-24T11:57:20;6.57;;;2.15;;
75785;SDS011;64402;44.708;37.644;2023-04-24T11:59:48;5.70;;;2.15;;
75785;SDS011;64402;44.708;37.644;2023-04-24T12:02:24;8.02;;;2.90;;
75785;SDS011;64402;44.708;37.644;2023-04-24T12:04:52;5.68;;;2.10;;
75785;SDS011;64402;44.708;37.644;2023-04-24T12:09:54;8.30;;;2.10;;
75785;SDS011;64402;44.708;37.644;2023-04-24T12:12:24;5.57;;;1.80;;
75785;SDS011;64402;44.708;37.644;2023-04-24T12:14:57;7.32;;;1.80;;
75785;SDS011;64402;44.708;37.644;2023-04-24T12:22:26;7.18;;;2.05;;
75785;SDS011;64402;44.708;37.644;2023-04-24T12:24:57;6.32;;;1.67;;
75785;SDS011;64402;44.708;37.644;2023-04-24T12:27:27;5.72;;;2.10;;
75785;SDS011;64402;44.708;37.644;2023-04-24T12:29:58;6.13;;;2.00;;
75785;SDS011;64402;44.708;37.644;2023-04-24T12:32:26;6.25;;;1.90;;
75785;SDS011;64402;44.708;37.644;2023-04-24T12:34:53;6.32;;;2.10;;
75785;SDS011;64402;44.708;37.644;2023-04-24T12:37:20;5.95;;;2.17;;
75785;SDS011;64402;44.708;37.644;2023-04-24T12:39:59;4.43;;;1.73;;
75785;SDS011;64402;44.708;37.644;2023-04-24T12:42:30;9.07;;;2.20;;
75785;SDS011;64402;44.708;37.644;2023-04-24T12:44:57;6.13;;;2.10;;
75785;SDS011;64402;44.708;37.644;2023-04-24T12:47:26;5.43;;;2.30;;
75785;SDS011;64402;44.708;37.644;2023-04-24T12:49:53;5.57;;;2.38;;
75785;SDS011;64402;44.708;37.644;2023-04-24T12:57:13;5.60;;;2.38;;
75785;SDS011;64402;44.708;37.644;2023-04-24T12:59:39;7.18;;;2.65;;
75785;SDS011;64402;44.708;37.644;2023-04-24T13:02:06;7.10;;;2.30;;
75785;SDS011;64402;44.708;37.644;2023-04-24T13:04:34;7.55;;;2.88;;
75785;SDS011;64402;44.708;37.644;2023-04-24T13:07:00;6.57;;;2.28;;
75785;SDS011;64402;44.708;37.644;2023-04-24T13:09:26;5.05;;;2.03;;
75785;SDS011;64402;44.708;37.644;2023-04-24T13:11:53;8.05;;;3.33;;
75785;SDS011;64402;44.708;37.644;2023-04-24T13:14:19;7.25;;;2.13;;
75785;SDS011;64402;44.708;37.644;2023-04-24T13:16:46;8.43;;;2.30;;
75785;SDS011;64402;44.708;37.644;2023-04-24T13:19:12;7.85;;;3.90;;
75785;SDS011;64402;44.708;37.644;2023-04-24T13:21:38;8.35;;;2.20;;
75785;SDS011;64402;44.708;37.644;2023-04-24T13:24:04;5.13;;;2.35;;
75785;SDS011;64402;44.708;37.644;2023-04-24T13:26:33;5.75;;;1.95;;
75785;SDS011;64402;44.708;37.644;2023-04-24T13:28:59;6.63;;;2.05;;
75785;SDS011;64402;44.708;37.644;2023-04-24T13:31:25;8.90;;;2.40;;
75785;SDS011;64402;44.708;37.644;2023-04-24T13:33:52;7.97;;;2.08;;
75785;SDS011;64402;44.708;37.644;2023-04-24T13:36:18;7.18;;;2.30;;
75785;SDS011;64402;44.708;37.644;2023-04-24T13:38:44;7.10;;;2.58;;
75785;SDS011;64402;44.708;37.644;2023-04-24T13:41:10;5.68;;;2.30;;
75785;SDS011;64402;44.708;37.644;2023-04-24T13:43:36;6.05;;;2.40;;
75785;SDS011;64402;44.708;37.644;2023-04-24T13:46:03;7.93;;;2.58;;
75785;SDS011;64402;44.708;37.644;2023-04-24T13:48:30;5.45;;;1.95;;
75785;SDS011;64402;44.708;37.644;2023-04-24T13:50:56;15.85;;;7.20;;
75785;SDS011;64402;44.708;37.644;2023-04-24T13:53:23;47.03;;;21.48;;
75785;SDS011;64402;44.708;37.644;2023-04-24T13:55:49;104.47;;;39.80;;
75785;SDS011;64402;44.708;37.644;2023-04-24T13:58:16;55.85;;;22.52;;
75785;SDS011;64402;44.708;37.644;2023-04-24T14:00:42;14.68;;;6.75;;
75785;SDS011;64402;44.708;37.644;2023-04-24T14:03:09;6.18;;;2.17;;
75785;SDS011;64402;44.708;37.644;2023-04-24T14:05:35;11.10;;;4.05;;
75785;SDS011;64402;44.708;37.644;2023-04-24T14:08:01;47.20;;;22.73;;
75785;SDS011;64402;44.708;37.644;2023-04-24T14:10:28;25.25;;;14.73;;
75785;SDS011;64402;44.708;37.644;2023-04-24T14:12:54;13.57;;;7.22;;
75785;SDS011;64402;44.708;37.644;2023-04-24T14:15:21;7.13;;;2.95;;
75785;SDS011;64402;44.708;37.644;2023-04-24T14:17:47;6.18;;;2.03;;
75785;SDS011;64402;44.708;37.644;2023-04-24T14:20:15;7.45;;;2.30;;
75785;SDS011;64402;44.708;37.644;2023-04-24T14:22:41;5.78;;;2.00;;
75785;SDS011;64402;44.708;37.644;2023-04-24T14:25:08;8.20;;;2.38;;
75785;SDS011;64402;44.708;37.644;2023-04-24T14:27:35;6.38;;;2.10;;
75785;SDS011;64402;44.708;37.644;2023-04-24T14:30:01;4.45;;;1.70;;
75785;SDS011;64402;44.708;37.644;2023-04-24T14:32:28;5.65;;;2.05;;
75785;SDS011;64402;44.708;37.644;2023-04-24T14:34:55;8.55;;;1.73;;
75785;SDS011;64402;44.708;37.644;2023-04-24T14:37:21;5.28;;;1.73;;
75785;SDS011;64402;44.708;37.644;2023-04-24T14:39:48;7.38;;;2.00;;
75785;SDS011;64402;44.708;37.644;2023-04-24T14:42:14;10.20;;;3.83;;
75785;SDS011;64402;44.708;37.644;2023-04-24T14:44:42;10.50;;;3.00;;
75785;SDS011;64402;44.708;37.644;2023-04-24T14:47:08;27.45;;;8.90;;
75785;SDS011;64402;44.708;37.644;2023-04-24T14:49:35;6.85;;;2.03;;
75785;SDS011;64402;44.708;37.644;2023-04-24T14:52:01;4.85;;;1.75;;
75785;SDS011;64402;44.708;37.644;2023-04-24T14:54:28;5.18;;;1.90;;
75785;SDS011;64402;44.708;37.644;2023-04-24T14:56:54;20.33;;;10.57;;
75785;SDS011;64402;44.708;37.644;2023-04-24T14:59:22;13.88;;;6.00;;
75785;SDS011;64402;44.708;37.644;2023-04-24T15:01:48;94.22;;;43.08;;